Terminal Aerodrome Forecast
Issued by NWS

Home | Current Version | Previous Version | Text Only | Print | Product List | Glossary On
Versions: 1 2 3 4 5 6 7 8 9 10 11 12 13 14 15 16 17 18 19 20 21 22 23 24
000
FTUS46 KLOX 032340
TAFSBP
TAF
KSBP 032340Z 0400/0424 32016KT P6SM SKC
     FM040300 30008KT P6SM SKC
     FM040600 VRB03KT P6SM SKC
     FM040900 VRB03KT P6SM OVC012
     FM041200 VRB03KT P6SM OVC008
     FM041800 25004KT P6SM SKC
     FM042000 29012KT P6SM SKC
     FM042200 30017G23KT P6SM SKC=

USA.gov is the U.S. government's official web portal to all federal, state and local government web resources and services.